This is the latest recevied weather packets stored in our database for station/object SV1TGC. If no packets are shown the sender has not sent any weather packets the latest 10 day(s).
| Time | Temp. | Humidity | Pressure | Rain* | Wind** | Luminosity | Snow |
|---|---|---|---|---|---|---|---|
| 1778131845 | 19.44° C | 57% | 1017.4 hPa | 0 mm | - | - | - |
| 1778131534 | 18.89° C | 59% | 1017.3 hPa | 0 mm | - | - | - |
| 1778130333 | 17.22° C | 70% | 1016.8 hPa | 0 mm | - | - | - |
| 1778129434 | 16.11° C | 76% | 1016.9 hPa | 0 mm | - | - | - |
| 1778129149 | 15.56° C | 77% | 1016.8 hPa | 0 mm | - | - | - |
| 1778128834 | 15° C | 78% | 1016.8 hPa | 0 mm | - | - | - |
| 1778126455 | 12.78° C | 79% | 1017 hPa | 0 mm | - | - | - |
| 1778125233 | 13.33° C | 78% | 1016.9 hPa | 0 mm | - | - | - |
| 1778123750 | 12.78° C | 78% | 1016.7 hPa | 0 mm | - | - | - |
| 1778122532 | 12.78° C | 79% | 1016.6 hPa | 0 mm | - | - | - |
| 1778121334 | 13.33° C | 76% | 1016.7 hPa | 0 mm | - | - | - |
| 1778120152 | 13.33° C | 78% | 1016.6 hPa | 0 mm | - | - | - |
| 1778119533 | 12.78° C | 78% | 1016.8 hPa | 0 mm | - | - | - |
| 1778118361 | 13.33° C | 77% | 1016.6 hPa | 0 mm | - | - | - |
| 1778117734 | 13.33° C | 75% | 1016.3 hPa | 0 mm | - | - | - |
| 1778116234 | 13.89° C | 73% | 1015.9 hPa | 0 mm | - | - | - |
| 1778114745 | 14.44° C | 72% | 1015.9 hPa | 0 mm | - | - | - |
| 1778113533 | 13.89° C | 74% | 1015.8 hPa | 0 mm | - | - | - |
| 1778112968 | 13.89° C | 74% | 1015.9 hPa | 0 mm | - | - | - |
| 1778112049 | 13.89° C | 72% | 1016.2 hPa | 0 mm | - | - | - |
| 1778110248 | 15° C | 66% | 1016.4 hPa | 0 mm | - | - | - |
| 1778109034 | 15° C | 65% | 1016.4 hPa | 0 mm | - | - | - |
| 1778108445 | 15° C | 66% | 1016.4 hPa | 0 mm | - | - | - |
| 1778100936 | 15° C | 62% | 1017.3 hPa | 0 mm | - | - | - |
| 1778099449 | 15.56° C | 61% | 1017.2 hPa | 0 mm | - | - | - |
* Rain latest hour (hover to see other rain measurements)
** Current wind speed in m/s (hover to see current wind gust speed)